Time;durP1;ratioP1;P1;durP2;ratioP2;P2;SDS_P1;SDS_P2;PMS_P1;PMS_P2;Temp;Humidity;BMP_temperature;BMP_pressure;BME280_temperature;BME280_humidity;BME280_pressure;Samples;Min_cycle;Max_cycle;Signal;HPM_P1;HPM_P2
2022/03/27 00:01:45;;;;;;;26.70;9.90;;;;;;;;;;4995139;28;20511;-71
2022/03/27 00:04:11;;;;;;;21.20;8.50;;;;;;;;;;4994648;28;20460;-71
2022/03/27 00:06:37;;;;;;;24.77;8.23;;;;;;;;;;4995086;28;20388;-71
2022/03/27 00:09:04;;;;;;;23.77;9.57;;;;;;;;;;4994738;28;20432;-71
2022/03/27 00:11:30;;;;;;;25.00;9.37;;;;;;;;;;4995106;28;20978;-71
2022/03/27 00:13:59;;;;;;;20.27;7.87;;;8.00;1.00;;;;;;5004778;28;20432;-71
2022/03/27 00:16:26;;;;;;;24.03;8.73;;;;;;;;;;4995266;28;20440;-74
2022/03/27 00:18:52;;;;;;;36.00;9.80;;;;;;;;;;4994828;28;20483;-74
2022/03/27 00:21:20;;;;;;;22.43;8.87;;;;;;;;;;4994894;28;20460;-74
2022/03/27 00:23:47;;;;;;;27.47;9.07;;;;;;;;;;4994292;28;20424;-74
2022/03/27 00:26:14;;;;;;;36.13;9.70;;;7.90;1.00;;;;;;4994690;28;20487;-74
2022/03/27 00:28:41;;;;;;;25.30;8.40;;;;;;;;;;4994951;28;20431;-74
2022/03/27 00:31:09;;;;;;;23.57;7.87;;;7.90;1.00;;;;;;4994983;28;20864;-71
2022/03/27 00:33:36;;;;;;;27.83;8.87;;;;;;;;;;4994582;28;20417;-71
2022/03/27 00:36:02;;;;;;;32.87;9.77;;;;;;;;;;4994156;28;20460;-71
2022/03/27 00:38:29;;;;;;;25.97;9.40;;;;;;;;;;4994152;28;20471;-71
2022/03/27 00:40:55;;;;;;;25.23;9.37;;;;;;;;;;4994570;28;20412;-71
2022/03/27 00:43:22;;;;;;;25.87;8.50;;;;;;;;;;4994152;28;20516;-71
2022/03/27 00:45:49;;;;;;;22.83;8.27;;;;;;;;;;4994574;28;20467;-71
2022/03/27 00:48:15;;;;;;;24.10;9.43;;;;;;;;;;4993701;28;20440;-72
2022/03/27 00:50:42;;;;;;;22.13;8.03;;;;;;;;;;4994263;28;20479;-71
2022/03/27 00:53:11;;;;;;;20.07;8.27;;;;;;;;;;4994158;28;20792;-71
2022/03/27 00:55:38;;;;;;;22.20;7.53;;;;;;;;;;4994145;28;20437;-71
2022/03/27 00:58:04;;;;;;;25.07;9.33;;;;;;;;;;4993775;28;20432;-71
2022/03/27 01:00:36;;;;;;;20.93;8.60;;;;;;;;;;4994550;28;20475;-74
2022/03/27 01:03:04;;;;;;;28.10;9.20;;;;;;;;;;4994550;28;20445;-75
2022/03/27 01:05:31;;;;;;;25.27;8.80;;;;;;;;;;4994044;28;20588;-74
2022/03/27 01:07:57;;;;;;;22.70;8.03;;;;;;;;;;4994060;28;21029;-74
2022/03/27 01:10:25;;;;;;;20.97;8.37;;;7.50;1.00;;;;;;4994005;28;20447;-74
2022/03/27 01:12:52;;;;;;;18.90;8.03;;;;;;;;;;4993203;28;20832;-74
2022/03/27 01:15:51;;;;;;;23.87;9.13;;;7.50;1.00;;;;;;4993651;28;20425;-74
2022/03/27 01:18:25;;;;;;;24.20;8.80;;;;;;;;;;4994006;28;20479;-75
2022/03/27 01:20:53;;;;;;;24.80;9.30;;;;;;;;;;4994229;28;20420;-74
2022/03/27 01:23:23;;;;;;;21.80;7.67;;;;;;;;;;4992983;28;20524;-75
2022/03/27 01:25:54;;;;;;;22.20;8.53;;;;;;;;;;4994157;28;20456;-74
2022/03/27 01:28:23;;;;;;;32.10;8.60;;;;;;;;;;4994105;28;20432;-74
2022/03/27 01:30:50;;;;;;;20.57;8.73;;;;;;;;;;4994415;28;20425;-74
2022/03/27 01:33:16;;;;;;;25.27;7.53;;;;;;;;;;4993962;28;20416;-74
2022/03/27 01:35:42;;;;;;;17.07;8.17;;;;;;;;;;4994207;28;20412;-74
2022/03/27 01:38:17;;;;;;;23.47;8.23;;;;;;;;;;4993860;28;20914;-74
2022/03/27 01:40:43;;;;;;;25.40;8.10;;;;;;;;;;4994199;28;20397;-74
2022/03/27 01:43:11;;;;;;;31.90;8.50;;;;;;;;;;4993510;28;20543;-74
2022/03/27 01:45:37;;;;;;;17.57;7.73;;;;;;;;;;4994205;28;20420;-72
2022/03/27 01:48:04;;;;;;;15.87;7.60;;;;;;;;;;4993422;28;20424;-71
2022/03/27 01:50:35;;;;;;;29.73;8.67;;;;;;;;;;4993654;28;20444;-71
2022/03/27 01:53:02;;;;;;;23.93;7.97;;;;;;;;;;4993483;28;20457;-71
2022/03/27 01:55:28;;;;;;;41.83;10.07;;;;;;;;;;4993348;28;20431;-71
2022/03/27 01:57:54;;;;;;;21.90;8.57;;;;;;;;;;4993347;28;20508;-71
2022/03/27 02:00:20;;;;;;;40.03;10.43;;;;;;;;;;4993680;28;20467;-72
2022/03/27 02:02:46;;;;;;;24.20;8.90;;;;;;;;;;4994087;28;20970;-74
2022/03/27 02:05:13;;;;;;;29.87;8.73;;;;;;;;;;4993943;28;20401;-74
2022/03/27 02:07:45;;;;;;;18.07;7.70;;;;;;;;;;4981959;28;20463;-74
2022/03/27 02:10:11;;;;;;;17.67;7.83;;;;;;;;;;4993848;28;20459;-74
2022/03/27 02:12:37;;;;;;;16.23;7.87;;;;;;;;;;4993748;28;20428;-74
2022/03/27 02:15:07;;;;;;;33.37;11.17;;;7.40;1.00;;;;;;4993890;28;20495;-74
2022/03/27 02:17:38;;;;;;;29.80;10.60;;;7.40;1.00;;;;;;4993813;28;20512;-75
2022/03/27 02:20:07;;;;;;;33.50;9.53;;;7.40;1.00;;;;;;4993453;28;20424;-74
2022/03/27 02:22:33;;;;;;;36.83;9.07;;;;;;;;;;4993716;28;20456;-74
2022/03/27 02:24:59;;;;;;;33.30;10.07;;;;;;;;;;4993781;28;20389;-74
2022/03/27 02:27:29;;;;;;;26.20;9.57;;;;;;;;;;4995034;28;20463;-74
2022/03/27 02:29:59;;;;;;;18.83;8.97;;;;;;;;;;4997276;28;20923;-74
2022/03/27 02:32:29;;;;;;;20.13;8.40;;;;;;;;;;4997407;28;20428;-74
2022/03/27 02:34:59;;;;;;;35.03;9.53;;;;;;;;;;4996939;28;20393;-74
2022/03/27 02:37:25;;;;;;;39.10;9.93;;;;;;;;;;4996487;28;20456;-75
2022/03/27 02:39:51;;;;;;;28.20;8.73;;;;;;;;;;4996907;28;21019;-74
2022/03/27 02:42:23;;;;;;;21.90;8.70;;;;;;;;;;4996588;28;20476;-74
2022/03/27 02:44:50;;;;;;;38.60;10.30;;;;;;;;;;4996667;28;20924;-74
2022/03/27 02:47:17;;;;;;;31.53;9.60;;;;;;;;;;4996886;28;20425;-74
2022/03/27 02:49:59;;;;;;;23.77;8.77;;;;;;;;;;4996301;28;20606;-74
2022/03/27 02:52:26;;;;;;;23.90;9.30;;;;;;;;;;4996782;28;20469;-74
2022/03/27 02:54:53;;;;;;;18.03;8.90;;;;;;;;;;4996837;28;20468;-74
2022/03/27 02:57:23;;;;;;;26.80;9.50;;;;;;;;;;4996497;28;20432;-74
2022/03/27 02:59:53;;;;;;;19.80;8.40;;;;;;;;;;4993831;28;20436;-74
2022/03/27 03:02:20;;;;;;;29.50;9.93;;;7.10;1.00;;;;;;4996565;28;20543;-72
2022/03/27 03:04:46;;;;;;;22.57;9.50;;;;;;;;;;4996039;28;20749;-72
2022/03/27 03:07:14;;;;;;;20.67;9.53;;;;;;;;;;4996022;28;20982;-71
2022/03/27 03:09:40;;;;;;;21.93;8.40;;;;;;;;;;4995661;28;20432;-72
2022/03/27 03:12:07;;;;;;;41.10;10.97;;;;;;;;;;4995739;28;20825;-71
2022/03/27 03:14:33;;;;;;;24.63;8.77;;;;;;;;;;4997176;28;20828;-72
2022/03/27 03:17:00;;;;;;;29.00;11.30;;;;;;;;;;4996001;28;20443;-72
2022/03/27 03:19:26;;;;;;;20.00;8.00;;;;;;;;;;4995759;28;20436;-72
2022/03/27 03:21:52;;;;;;;29.00;9.13;;;;;;;;;;4995735;28;20472;-71
2022/03/27 03:24:19;;;;;;;30.90;9.47;;;;;;;;;;4995715;28;20429;-72
2022/03/27 03:26:45;;;;;;;26.33;9.60;;;;;;;;;;4995514;28;20503;-72
2022/03/27 03:29:11;;;;;;;19.30;8.73;;;;;;;;;;4995806;28;20439;-71
2022/03/27 03:31:41;;;;;;;31.43;9.63;;;;;;;;;;4995648;28;20919;-72
2022/03/27 03:34:07;;;;;;;27.67;9.00;;;;;;;;;;4995022;28;20437;-72
2022/03/27 03:36:33;;;;;;;21.10;9.10;;;;;;;;;;4995278;28;20433;-72
2022/03/27 03:38:59;;;;;;;43.70;11.20;;;;;;;;;;4995216;28;20455;-72
2022/03/27 03:41:26;;;;;;;32.43;11.17;;;;;;;;;;4993775;28;20465;-72
2022/03/27 03:43:52;;;;;;;24.67;9.80;;;;;;;;;;4995461;28;20416;-72
2022/03/27 03:46:18;;;;;;;39.43;11.30;;;;;;;;;;4994967;28;20939;-72
2022/03/27 03:48:44;;;;;;;28.37;9.70;;;;;;;;;;4995381;28;20916;-72
2022/03/27 03:51:10;;;;;;;33.77;10.53;;;;;;;;;;4995059;28;20460;-72
2022/03/27 03:53:36;;;;;;;27.13;8.40;;;;;;;;;;4995140;28;20439;-72
2022/03/27 03:56:03;;;;;;;22.93;10.37;;;;;;;;;;4995134;28;20420;-72
2022/03/27 03:58:29;;;;;;;24.87;10.00;;;;;;;;;;4995281;28;20424;-72
2022/03/27 04:00:55;;;;;;;24.33;9.43;;;;;;;;;;4994560;28;20849;-72
2022/03/27 04:03:21;;;;;;;22.33;8.73;;;;;;;;;;4995409;28;20825;-71
2022/03/27 04:05:47;;;;;;;28.03;9.60;;;;;;;;;;4994647;28;20425;-72
2022/03/27 04:08:14;;;;;;;25.80;10.30;;;;;;;;;;4994846;28;20532;-72
2022/03/27 04:10:41;;;;;;;26.43;10.17;;;6.70;1.00;;;;;;4994554;28;20918;-72
2022/03/27 04:13:09;;;;;;;23.30;9.40;;;;;;;;;;5003598;28;20992;-72
2022/03/27 04:15:35;;;;;;;29.40;10.53;;;;;;;;;;4997738;28;20417;-72
2022/03/27 04:18:02;;;;;;;28.83;9.53;;;;;;;;;;4994922;28;20437;-72
2022/03/27 04:20:28;;;;;;;24.90;9.30;;;;;;;;;;4994185;28;20448;-72
2022/03/27 04:22:54;;;;;;;23.70;9.03;;;;;;;;;;4994534;28;20459;-72
2022/03/27 04:25:20;;;;;;;20.23;8.30;;;;;;;;;;4994797;28;20468;-72
2022/03/27 04:27:46;;;;;;;19.87;7.97;;;;;;;;;;4993453;28;20519;-72
2022/03/27 04:30:12;;;;;;;27.63;9.47;;;;;;;;;;4994410;28;20421;-72
2022/03/27 04:32:38;;;;;;;23.87;8.70;;;;;;;;;;4994770;28;20452;-74
2022/03/27 04:35:06;;;;;;;19.17;7.87;;;6.40;1.00;;;;;;4994788;28;20860;-74
2022/03/27 04:37:32;;;;;;;18.20;8.47;;;;;;;;;;4994658;28;20464;-75
2022/03/27 04:40:02;;;;;;;18.60;8.83;;;;;;;;;;4994678;28;20777;-74
2022/03/27 04:42:29;;;;;;;24.57;9.30;;;6.30;1.00;;;;;;4994446;28;20448;-74
2022/03/27 04:44:56;;;;;;;20.43;8.73;;;;;;;;;;4994833;28;20507;-74
2022/03/27 04:47:22;;;;;;;27.43;7.80;;;;;;;;;;4994752;28;20959;-73
2022/03/27 04:49:48;;;;;;;28.33;9.13;;;;;;;;;;4994027;28;20503;-74
2022/03/27 04:52:14;;;;;;;22.83;9.20;;;;;;;;;;4994607;28;20989;-74
2022/03/27 04:54:41;;;;;;;35.37;10.20;;;;;;;;;;4994583;28;21074;-74
2022/03/27 04:57:07;;;;;;;25.00;9.80;;;;;;;;;;4994602;28;20496;-74
2022/03/27 04:59:33;;;;;;;25.83;9.27;;;;;;;;;;4994344;28;20435;-75
2022/03/27 05:02:11;;;;;;;23.27;9.30;;;;;;;;;;4994406;28;20556;-74
2022/03/27 05:04:40;;;;;;;27.90;9.57;;;;;;;;;;4994901;28;20496;-74
2022/03/27 05:07:06;;;;;;;27.40;9.20;;;;;;;;;;4994316;28;20811;-75
2022/03/27 05:09:41;;;;;;;28.00;10.80;;;;;;;;;;4994415;28;20420;-75
2022/03/27 05:12:08;;;;;;;29.03;10.07;;;;;;;;;;4993240;28;20491;-75
2022/03/27 05:14:41;;;;;;;19.60;10.07;;;;;;;;;;5014113;28;20396;-74
2022/03/27 05:17:07;;;;;;;26.63;10.50;;;;;;;;;;5008431;28;20432;-75
2022/03/27 05:19:35;;;;;;;26.20;9.77;;;;;;;;;;4994412;28;20466;-75
2022/03/27 05:22:07;;;;;;;21.57;8.57;;;;;;;;;;4992822;28;20471;-74
2022/03/27 05:24:33;;;;;;;22.50;8.67;;;;;;;;;;4993298;28;20758;-74
2022/03/27 05:27:12;;;;;;;24.07;9.80;;;;;;;;;;4993999;28;20416;-74
2022/03/27 05:29:38;;;;;;;22.87;9.60;;;;;;;;;;4994232;28;20413;-74
2022/03/27 05:32:06;;;;;;;29.23;10.73;;;;;;;;;;4994213;28;20435;-74
2022/03/27 05:34:41;;;;;;;24.43;10.40;;;;;;;;;;4994583;28;20456;-74
2022/03/27 05:37:12;;;;;;;27.90;12.33;;;;;;;;;;4994025;28;20554;-74
2022/03/27 05:39:47;;;;;;;26.80;9.87;;;;;;;;;;4993173;28;20474;-74
2022/03/27 05:42:17;;;;;;;31.53;10.10;;;;;;;;;;4985431;28;20483;-74
2022/03/27 05:44:47;;;;;;;32.07;10.50;;;;;;;;;;4994148;28;20421;-74
2022/03/27 05:47:17;;;;;;;39.67;10.70;;;;;;;;;;4993870;28;20503;-74
2022/03/27 05:49:48;;;;;;;29.70;10.63;;;;;;;;;;4994124;28;20455;-74
2022/03/27 05:52:16;;;;;;;32.27;9.40;;;;;;;;;;4993649;28;20436;-74
2022/03/27 05:54:42;;;;;;;27.40;9.50;;;;;;;;;;4994131;28;20409;-74
2022/03/27 05:57:08;;;;;;;28.00;9.70;;;;;;;;;;4993602;28;20491;-74
2022/03/27 05:59:47;;;;;;;22.00;8.93;;;;;;;;;;4994014;28;20819;-74
2022/03/27 06:02:17;;;;;;;24.70;10.93;;;;;;;;;;4996624;28;20559;-74
2022/03/27 06:04:44;;;;;;;29.63;10.33;;;;;;;;;;4997462;28;20428;-72
2022/03/27 06:07:10;;;;;;;33.53;9.57;;;;;;;;;;4984555;28;20412;-72
2022/03/27 06:09:36;;;;;;;23.90;9.67;;;;;;;;;;4997548;28;20798;-72
2022/03/27 06:12:03;;;;;;;26.43;10.00;;;6.90;1.00;;;;;;4996639;28;20460;-72
2022/03/27 06:14:30;;;;;;;32.00;11.37;;;;;;;;;;5000672;28;20443;-72
2022/03/27 06:16:56;;;;;;;25.90;10.20;;;;;;;;;;4995505;28;20428;-72
2022/03/27 06:19:23;;;;;;;34.10;10.17;;;;;;;;;;4993119;28;20429;-72
2022/03/27 06:21:49;;;;;;;24.07;9.27;;;;;;;;;;4996860;28;20967;-72
2022/03/27 06:24:16;;;;;;;26.03;9.90;;;;;;;;;;4996501;28;20442;-72
2022/03/27 06:26:42;;;;;;;31.27;10.60;;;;;;;;;;4996645;28;20435;-72
2022/03/27 06:29:09;;;;;;;26.23;10.17;;;;;;;;;;4995648;28;20421;-72
2022/03/27 06:31:38;;;;;;;18.80;9.37;;;7.50;1.00;;;;;;4997078;28;20500;-83
2022/03/27 06:34:18;;;;;;;27.50;10.00;;;;;;;;;;4996958;28;20443;-83
2022/03/27 06:36:48;;;;;;;26.57;10.63;;;;;;;;;;4997172;28;20412;-83
2022/03/27 06:39:23;;;;;;;22.20;10.20;;;;;;;;;;4996996;28;20892;-83
2022/03/27 06:42:23;;;;;;;40.47;11.90;;;;;;;;;;4996646;28;20467;-83
2022/03/27 06:44:54;;;;;;;35.60;10.63;;;;;;;;;;4986538;28;20397;-83
2022/03/27 06:47:42;;;;;;;33.13;12.00;;;8.10;1.00;;;;;;4996356;28;20423;-80
2022/03/27 06:50:08;;;;;;;25.77;10.63;;;8.30;1.00;;;;;;4996983;28;20429;-78
2022/03/27 06:52:42;;;;;;;31.27;10.60;;;;;;;;;;4995063;28;20484;-73
2022/03/27 06:55:09;;;;;;;29.00;11.80;;;8.60;1.00;;;;;;4996502;28;20758;-73
2022/03/27 06:57:42;;;;;;;31.60;11.90;;;;;;;;;;4996280;28;20440;-73
2022/03/27 07:03:12;;;;;;;31.83;11.90;;;;;;;;;;4996277;28;20868;-76
2022/03/27 07:05:41;;;;;;;26.20;11.40;;;;;;;;;;4996741;28;20872;-76
2022/03/27 07:08:12;;;;;;;38.83;12.63;;;9.40;1.00;;;;;;4996643;28;20413;-77
2022/03/27 07:11:05;;;;;;;30.40;12.20;;;9.60;1.00;;;;;;4994816;28;20799;-77
2022/03/27 07:13:31;;;;;;;33.87;12.60;;;;;;;;;;4995725;28;20409;-77
2022/03/27 07:16:13;;;;;;;30.07;13.47;;;;;;;;;;4996475;28;20413;-76
2022/03/27 07:18:41;;;;;;;24.33;12.53;;;;;;;;;;4996195;28;20504;-76
2022/03/27 07:21:18;;;;;;;24.07;11.93;;;10.30;1.00;;;;;;4996647;28;20420;-76
2022/03/27 07:23:53;;;;;;;33.70;12.63;;;;;;;;;;4996391;28;20412;-76
2022/03/27 07:26:23;;;;;;;29.43;13.03;;;;;;;;;;4996645;28;20383;-76
2022/03/27 07:29:01;;;;;;;26.20;11.43;;;;;;;;;;4985745;28;20405;-76
2022/03/27 07:31:27;;;;;;;36.97;13.60;;;;;;;;;;4989967;28;20520;-70
2022/03/27 07:33:55;;;;;;;29.37;12.10;;;;;;;;;;4986805;28;20892;-71
2022/03/27 07:36:23;;;;;;;30.07;12.27;;;;;;;;;;4995988;28;20419;-71
2022/03/27 07:38:53;;;;;;;30.00;12.80;;;;;;;;;;4995307;28;20413;-77
2022/03/27 07:41:23;;;;;;;32.43;13.40;;;;;;;;;;4995970;28;20416;-77
2022/03/27 07:43:49;;;;;;;29.90;12.73;;;;;;;;;;4995696;28;20384;-76
2022/03/27 07:46:17;;;;;;;29.07;13.17;;;;;;;;;;4994567;28;20409;-79
2022/03/27 07:48:47;;;;;;;25.57;12.37;;;;;;;;;;4995345;28;20392;-75
2022/03/27 07:51:13;;;;;;;33.90;13.47;;;;;;;;;;4995547;28;20415;-75
2022/03/27 07:53:39;;;;;;;44.30;13.90;;;;;;;;;;4995337;28;20901;-74
2022/03/27 07:56:05;;;;;;;41.17;14.30;;;;;;;;;;4995149;28;20427;-74
2022/03/27 07:58:32;;;;;;;27.80;14.10;;;;;;;;;;4995447;28;20867;-75
2022/03/27 08:00:58;;;;;;;30.83;12.90;;;;;;;;;;4995209;28;20475;-74
2022/03/27 08:03:42;;;;;;;44.50;20.47;;;12.40;1.00;;;;;;4994022;28;20491;-75
2022/03/27 08:06:08;;;;;;;30.43;13.77;;;;;;;;;;4995022;28;20959;-72
2022/03/27 08:08:34;;;;;;;52.93;19.00;;;;;;;;;;4995245;28;20417;-73
2022/03/27 08:11:00;;;;;;;35.93;13.53;;;;;;;;;;4994313;28;20423;-78
2022/03/27 08:13:29;;;;;;;28.10;13.47;;;;;;;;;;4993916;28;20379;-77
2022/03/27 08:16:00;;;;;;;29.70;14.27;;;;;;;;;;4995157;28;20420;-77
2022/03/27 08:18:26;;;;;;;36.70;14.57;;;;;;;;;;4995113;28;20464;-72
2022/03/27 08:20:52;;;;;;;30.57;13.10;;;;;;;;;;4995206;28;20459;-77
2022/03/27 08:23:35;;;;;;;50.27;14.90;;;;;;;;;;4994944;28;20796;-77
2022/03/27 08:29:02;;;;;;;43.07;14.27;;;;;;;;;;4994696;28;20488;-72
2022/03/27 08:31:29;;;;;;;45.37;15.10;;;;;;;;;;4994067;28;21152;-72
2022/03/27 08:33:55;;;;;;;55.40;24.00;;;;;;;;;;4994577;28;20387;-72
2022/03/27 08:36:22;;;;;;;44.97;16.93;;;;;;;;;;4993497;28;20396;-72
2022/03/27 08:38:48;;;;;;;35.77;14.13;;;;;;;;;;4995068;28;20818;-74
2022/03/27 08:41:16;;;;;;;34.97;14.17;;;13.90;1.00;;;;;;4990266;28;20391;-75
2022/03/27 08:43:43;;;;;;;53.90;15.67;;;14.00;1.00;;;;;;4993970;28;20544;-74
2022/03/27 08:46:09;;;;;;;276.50;116.27;;;;;;;;;;4994554;28;20408;-74
2022/03/27 08:48:37;;;;;;;39.43;17.83;;;14.20;1.00;;;;;;4994449;28;20416;-74
2022/03/27 08:51:03;;;;;;;125.67;49.20;;;;;;;;;;4994844;28;20403;-74
2022/03/27 08:53:49;;;;;;;47.13;13.97;;;14.30;1.00;;;;;;4994539;28;20436;-74
2022/03/27 08:56:18;;;;;;;28.07;13.63;;;14.40;1.00;;;;;;4993865;28;20444;-74
2022/03/27 08:58:44;;;;;;;28.73;12.30;;;14.50;1.00;;;;;;4994138;28;20395;-76
2022/03/27 09:01:12;;;;;;;30.03;12.50;;;;;;;;;;4993247;28;20395;-75
2022/03/27 09:03:38;;;;;;;31.57;12.90;;;;;;;;;;4994185;28;20505;-75
2022/03/27 09:06:12;;;;;;;24.67;11.90;;;;;;;;;;4993943;28;20424;-75
2022/03/27 09:08:38;;;;;;;42.10;17.00;;;;;;;;;;4994544;28;20496;-75
2022/03/27 09:11:05;;;;;;;32.87;13.30;;;;;;;;;;4994156;28;20432;-75
2022/03/27 09:13:36;;;;;;;121.27;40.23;;;;;;;;;;4993866;28;20887;-75
2022/03/27 09:16:12;;;;;;;44.57;17.20;;;;;;;;;;4981001;28;20475;-75
2022/03/27 09:18:58;;;;;;;47.33;18.20;;;15.10;1.00;;;;;;4993322;28;20444;-75
2022/03/27 09:21:50;;;;;;;30.70;12.17;;;15.10;1.00;;;;;;4994324;28;20417;-75
2022/03/27 09:24:16;;;;;;;29.50;12.23;;;;;;;;;;4992733;28;20935;-75
2022/03/27 09:26:59;;;;;;;31.93;13.13;;;15.20;1.00;;;;;;4993742;28;20897;-75
2022/03/27 09:29:25;;;;;;;25.17;12.70;;;;;;;;;;4994156;28;20435;-76
2022/03/27 09:31:57;;;;;;;43.47;21.70;;;15.50;1.00;;;;;;4993791;28;20443;-75
2022/03/27 09:34:23;;;;;;;35.13;16.27;;;;;;;;;;4993509;28;20444;-75
2022/03/27 09:37:00;;;;;;;24.90;13.07;;;;;;;;;;4996349;28;20920;-79
2022/03/27 09:39:55;;;;;;;73.60;27.87;;;15.90;1.00;;;;;;4998129;28;20400;-78
2022/03/27 09:42:37;;;;;;;32.30;13.60;;;16.00;1.00;;;;;;4997666;28;20472;-78
2022/03/27 09:45:16;;;;;;;27.30;12.90;;;16.00;1.00;;;;;;4997438;28;20412;-78
2022/03/27 09:47:50;;;;;;;52.90;26.23;;;16.10;1.00;;;;;;4997654;28;20410;-78
2022/03/27 09:50:36;;;;;;;27.30;13.50;;;16.20;1.00;;;;;;4997813;28;20767;-79
2022/03/27 09:53:36;;;;;;;35.97;13.57;;;16.10;1.00;;;;;;4997888;28;20437;-78
2022/03/27 09:56:03;;;;;;;35.93;12.83;;;;;;;;;;4994726;28;20432;-78
2022/03/27 09:58:38;;;;;;;24.00;12.60;;;;;;;;;;4997761;28;20859;-78
2022/03/27 10:01:17;;;;;;;25.60;11.97;;;16.30;1.00;;;;;;4997652;28;20413;-78
2022/03/27 10:04:00;;;;;;;30.30;15.50;;;16.50;1.00;;;;;;4997695;28;20456;-78
2022/03/27 10:06:37;;;;;;;43.30;19.13;;;;;;;;;;4997472;28;20748;-78
2022/03/27 10:09:07;;;;;;;26.27;12.50;;;16.60;1.00;;;;;;4997756;28;20825;-78
2022/03/27 10:11:34;;;;;;;26.77;12.90;;;;;;;;;;4997337;28;20393;-78
2022/03/27 10:14:06;;;;;;;31.83;15.97;;;16.80;1.00;;;;;;4997349;28;20425;-78
2022/03/27 10:16:46;;;;;;;24.13;11.80;;;16.90;1.00;;;;;;4997183;28;20407;-79
2022/03/27 10:19:38;;;;;;;30.90;14.67;;;16.90;1.00;;;;;;4984741;28;20464;-79
2022/03/27 10:22:23;;;;;;;30.13;14.73;;;17.10;1.00;;;;;;4997481;28;20461;-77
2022/03/27 10:24:56;;;;;;;22.67;13.20;;;;;;;;;;4997994;28;20413;-77
2022/03/27 10:27:22;;;;;;;23.93;12.33;;;;;;;;;;4993299;28;20537;-77
2022/03/27 10:29:48;;;;;;;35.00;12.57;;;;;;;;;;4997164;28;20430;-76
2022/03/27 10:32:15;;;;;;;28.47;13.20;;;;;;;;;;4997152;28;20514;-75
2022/03/27 10:35:01;;;;;;;21.03;11.73;;;;;;;;;;4997130;28;20503;-76
2022/03/27 10:37:36;;;;;;;38.17;13.23;;;;;;;;;;4977950;28;20430;-76
2022/03/27 10:40:08;;;;;;;29.07;12.50;;;;;;;;;;4999443;28;21036;-73
2022/03/27 10:42:46;;;;;;;97.13;42.20;;;;;;;;;;5001273;28;20901;-73
2022/03/27 10:45:15;;;;;;;36.83;15.87;;;;;;;;;;4994302;28;20835;-73
2022/03/27 10:47:42;;;;;;;25.97;11.50;;;;;;;;;;4976570;28;20876;-73
2022/03/27 10:50:08;;;;;;;100.53;41.83;;;;;;;;;;4994457;28;20522;-73
2022/03/27 10:52:36;;;;;;;35.70;13.70;;;;;;;;;;4994295;28;20468;-74
2022/03/27 10:55:11;;;;;;;24.03;12.17;;;18.00;99.90;;;;;;4994226;28;20829;-76
2022/03/27 10:57:43;;;;;;;30.23;11.90;;;;;;;;;;4994578;28;20465;-75
2022/03/27 11:00:11;;;;;;;21.00;10.30;;;18.00;99.90;;;;;;4981342;28;20416;-76
2022/03/27 11:02:51;;;;;;;24.70;10.97;;;18.20;99.90;;;;;;4994505;28;20503;-76
2022/03/27 11:05:32;;;;;;;24.83;10.10;;;;;;;;;;4994364;28;20887;-76
2022/03/27 11:08:16;;;;;;;28.13;11.47;;;;;;;;;;4994409;28;20428;-76
2022/03/27 11:10:59;;;;;;;27.10;11.33;;;18.30;99.90;;;;;;4994211;28;20922;-76
2022/03/27 11:13:30;;;;;;;28.17;11.43;;;;;;;;;;4999431;28;20518;-76
2022/03/27 11:16:05;;;;;;;29.27;13.30;;;;;;;;;;4996363;28;20439;-76
2022/03/27 11:18:45;;;;;;;26.07;11.53;;;18.50;99.90;;;;;;4996352;28;20419;-76
2022/03/27 11:21:12;;;;;;;21.53;9.83;;;;;;;;;;4996257;28;20462;-75
2022/03/27 11:23:40;;;;;;;21.93;10.33;;;18.70;99.90;;;;;;4996439;28;20459;-73
2022/03/27 11:26:27;;;;;;;21.17;9.73;;;;;;;;;;4996015;28;20412;-73
2022/03/27 11:28:55;;;;;;;18.17;9.20;;;18.80;99.90;;;;;;4995970;28;20471;-73
2022/03/27 11:31:37;;;;;;;23.87;10.17;;;18.90;99.90;;;;;;4995927;28;20420;-73
2022/03/27 11:34:07;;;;;;;26.63;10.70;;;;;;;;;;4996063;28;20818;-74
2022/03/27 11:36:35;;;;;;;21.20;8.97;;;18.80;99.90;;;;;;4995852;28;20419;-74
2022/03/27 11:39:07;;;;;;;20.30;8.90;;;;;;;;;;5011107;28;20440;-75
2022/03/27 11:41:43;;;;;;;15.73;7.57;;;19.00;99.90;;;;;;4995850;28;20970;-77
2022/03/27 11:44:18;;;;;;;13.10;6.37;;;;;;;;;;4995889;28;20502;-75
2022/03/27 11:46:48;;;;;;;48.00;19.57;;;19.20;99.90;;;;;;4995849;28;20408;-75
2022/03/27 11:49:14;;;;;;;20.90;9.40;;;;;;;;;;4982705;28;20431;-76
2022/03/27 11:51:40;;;;;;;31.43;9.20;;;;;;;;;;4994435;28;20473;-75
2022/03/27 11:54:21;;;;;;;21.50;8.63;;;19.30;99.90;;;;;;4996074;28;20515;-75
2022/03/27 11:56:59;;;;;;;18.47;8.80;;;19.40;99.90;;;;;;4995748;28;20418;-75
2022/03/27 11:59:26;;;;;;;17.70;7.30;;;19.50;99.90;;;;;;4995476;28;20404;-75
2022/03/27 12:02:01;;;;;;;53.13;10.77;;;;;;;;;;4989557;28;20456;-76
2022/03/27 12:04:30;;;;;;;21.80;8.90;;;;;;;;;;4983548;28;20759;-75
2022/03/27 12:07:02;;;;;;;23.43;8.67;;;19.50;99.90;;;;;;4995135;28;20425;-75
2022/03/27 12:09:29;;;;;;;32.27;12.70;;;19.50;99.90;;;;;;4995649;28;20417;-74
2022/03/27 12:12:08;;;;;;;17.73;8.37;;;;;;;;;;4994873;28;20464;-74
2022/03/27 12:14:52;;;;;;;19.27;7.40;;;19.60;99.90;;;;;;4985620;28;20428;-74
2022/03/27 12:17:18;;;;;;;20.57;9.90;;;;;;;;;;4995046;28;20448;-74
2022/03/27 12:20:15;;;;;;;21.80;8.60;;;19.60;99.90;;;;;;4994998;28;20413;-75
2022/03/27 12:22:49;;;;;;;21.60;8.70;;;19.60;99.90;;;;;;4972988;28;20476;-75
2022/03/27 12:25:20;;;;;;;16.13;8.30;;;19.60;99.90;;;;;;4973589;28;20949;-79
2022/03/27 12:30:54;;;;;;;24.53;8.67;;;;;;;;;;4973720;28;21110;-78
2022/03/27 12:33:30;;;;;;;19.30;9.57;;;;;;;;;;4973465;28;20423;-78
2022/03/27 12:36:17;;;;;;;16.93;9.23;;;19.70;99.90;;;;;;4973260;28;20387;-79
2022/03/27 12:38:48;;;;;;;17.50;8.10;;;;;;;;;;4973226;28;20904;-78
2022/03/27 12:41:32;;;;;;;72.53;33.23;;;19.80;99.90;;;;;;4973392;28;20420;-75
2022/03/27 12:43:58;;;;;;;22.43;9.93;;;;;;;;;;4965355;28;20467;-73
2022/03/27 12:46:25;;;;;;;25.13;9.40;;;;;;;;;;4972691;28;20505;-73
2022/03/27 12:49:16;;;;;;;26.20;10.40;;;20.00;99.90;;;;;;4966334;28;20434;-73
2022/03/27 12:51:42;;;;;;;22.03;8.70;;;;;;;;;;4958315;28;20870;-73
2022/03/27 12:54:12;;;;;;;26.07;9.67;;;;;;;;;;4972661;28;20414;-74
2022/03/27 12:56:57;;;;;;;17.97;7.13;;;20.30;99.90;;;;;;4973075;28;20423;-76
2022/03/27 12:59:24;;;;;;;52.40;11.60;;;;;;;;;;4986628;28;20517;-76
2022/03/27 13:01:54;;;;;;;21.37;9.27;;;;;;;;;;4994634;28;20794;-76
2022/03/27 13:04:30;;;;;;;15.60;9.10;;;;;;;;;;4994565;28;20452;-75
2022/03/27 13:06:59;;;;;;;18.00;8.90;;;;;;;;;;4994145;28;20409;-76
2022/03/27 13:09:28;;;;;;;32.07;8.97;;;;;;;;;;4983236;28;20422;-75
2022/03/27 13:11:54;;;;;;;22.03;8.63;;;;;;;;;;4993413;28;20868;-72
2022/03/27 13:14:21;;;;;;;18.67;8.40;;;;;;;;;;5004868;28;20445;-72
2022/03/27 13:16:48;;;;;;;23.10;9.10;;;;;;;;;;4993241;28;20525;-72
2022/03/27 13:19:24;;;;;;;27.47;9.23;;;20.60;99.90;;;;;;4986667;28;20421;-72
2022/03/27 13:21:58;;;;;;;56.53;10.43;;;;;;;;;;4993429;28;20461;-72
2022/03/27 13:24:34;;;;;;;24.57;8.53;;;;;;;;;;4993768;28;20395;-72
2022/03/27 13:27:08;;;;;;;22.53;9.00;;;20.90;99.90;;;;;;4993504;28;20430;-77
2022/03/27 13:29:36;;;;;;;27.80;9.30;;;20.90;99.90;;;;;;4994091;28;20465;-76
2022/03/27 13:32:03;;;;;;;19.07;9.10;;;;;;;;;;4984714;28;20425;-76
2022/03/27 13:34:32;;;;;;;17.33;9.07;;;;;;;;;;4993825;28;20481;-76
2022/03/27 13:36:58;;;;;;;23.40;8.73;;;;;;;;;;4993859;28;20521;-76
2022/03/27 13:39:30;;;;;;;21.30;8.07;;;;;;;;;;4993687;28;20433;-76
2022/03/27 13:44:41;;;;;;;17.50;8.30;;;;;;;;;;4994088;28;20932;-76
2022/03/27 13:47:09;;;;;;;35.73;9.73;;;21.00;99.90;;;;;;4990016;28;20803;-76
2022/03/27 13:49:35;;;;;;;36.10;8.23;;;;;;;;;;4993593;28;20462;-76
2022/03/27 13:52:02;;;;;;;16.17;8.30;;;;;;;;;;4993924;28;20438;-76
2022/03/27 13:54:28;;;;;;;25.47;9.03;;;;;;;;;;4993640;28;20428;-76
2022/03/27 13:56:54;;;;;;;21.40;8.40;;;;;;;;;;4994056;28;20430;-72
2022/03/27 13:59:20;;;;;;;28.93;9.50;;;;;;;;;;4992729;28;20819;-72
2022/03/27 14:01:47;;;;;;;23.77;9.80;;;;;;;;;;4993518;28;20493;-72
2022/03/27 14:04:15;;;;;;;19.03;8.30;;;21.20;99.90;;;;;;4991521;28;20414;-72
2022/03/27 14:06:42;;;;;;;20.80;9.40;;;21.30;99.90;;;;;;4993581;28;20409;-72
2022/03/27 14:09:09;;;;;;;17.13;8.57;;;;;;;;;;4992934;28;20432;-72
2022/03/27 14:11:35;;;;;;;16.67;8.00;;;21.40;99.90;;;;;;4993396;28;20825;-72
2022/03/27 14:14:02;;;;;;;16.97;8.70;;;;;;;;;;5004436;28;20424;-72
2022/03/27 14:16:31;;;;;;;26.03;9.53;;;;;;;;;;4993382;28;20431;-72
2022/03/27 14:18:57;;;;;;;28.60;9.93;;;;;;;;;;4992971;28;20472;-72
2022/03/27 14:21:23;;;;;;;21.13;8.90;;;;;;;;;;4993545;28;20485;-72
2022/03/27 14:23:49;;;;;;;19.63;8.97;;;;;;;;;;4997137;28;20469;-72
2022/03/27 14:26:16;;;;;;;25.23;9.60;;;;;;;;;;4997015;28;20480;-72
2022/03/27 14:28:42;;;;;;;25.13;9.10;;;;;;;;;;4997032;28;20419;-72